createdAt,value
2023-02-22T00:02:14.094Z,8.80
2023-02-22T00:04:42.574Z,8.70
2023-02-22T00:07:11.632Z,9.80
2023-02-22T00:09:39.971Z,9.20
2023-02-22T00:12:10.150Z,10.90
2023-02-22T00:14:40.308Z,9.10
2023-02-22T00:17:09.040Z,7.90
2023-02-22T00:19:38.075Z,7.70
2023-02-22T00:22:06.477Z,9.20
2023-02-22T00:24:36.185Z,9.00
2023-02-22T00:27:04.678Z,10.30
2023-02-22T00:29:34.432Z,10.10
2023-02-22T00:32:03.115Z,10.50
2023-02-22T00:34:31.791Z,11.30
2023-02-22T00:37:02.924Z,12.20
2023-02-22T00:39:31.793Z,13.70
2023-02-22T00:42:00.360Z,11.70
2023-02-22T00:44:28.915Z,10.80
2023-02-22T00:46:57.431Z,10.30
2023-02-22T00:49:26.194Z,10.30
2023-02-22T00:51:54.846Z,12.10
2023-02-22T00:54:23.314Z,12.50
2023-02-22T00:56:51.846Z,12.30
2023-02-22T00:59:20.921Z,11.40
2023-02-22T01:01:49.455Z,11.60
2023-02-22T01:04:18.462Z,11.10
2023-02-22T01:06:47.221Z,8.40
2023-02-22T01:09:15.768Z,8.90
2023-02-22T01:11:45.385Z,8.10
2023-02-22T01:14:13.736Z,7.80
2023-02-22T01:16:42.092Z,8.80
2023-02-22T01:19:12.681Z,7.90
2023-02-22T01:21:41.199Z,8.50
2023-02-22T01:24:09.554Z,8.70
2023-02-22T01:26:38.014Z,8.60
2023-02-22T01:29:07.293Z,8.00
2023-02-22T01:31:35.830Z,7.90
2023-02-22T01:34:04.203Z,9.10
2023-02-22T01:36:32.525Z,9.60
2023-02-22T01:39:00.816Z,7.60
2023-02-22T01:41:29.170Z,8.40
2023-02-22T01:43:57.454Z,9.40
2023-02-22T01:46:27.861Z,9.60
2023-02-22T01:49:06.309Z,9.10
2023-02-22T01:51:43.054Z,7.70
2023-02-22T01:54:15.888Z,9.20
2023-02-22T01:56:56.294Z,9.00
2023-02-22T01:59:24.594Z,10.30
2023-02-22T02:01:53.102Z,9.80
2023-02-22T02:04:25.571Z,9.70
2023-02-22T02:06:58.286Z,10.10
2023-02-22T02:09:49.942Z,9.80
2023-02-22T02:12:19.830Z,10.40
2023-02-22T02:14:48.160Z,9.90
2023-02-22T02:17:22.197Z,8.80
2023-02-22T02:20:14.740Z,9.90
2023-02-22T02:23:13.569Z,9.10
2023-02-22T02:26:06.161Z,9.50
2023-02-22T02:28:57.414Z,9.00
2023-02-22T02:31:57.107Z,9.60
2023-02-22T02:35:15.323Z,10.20
2023-02-22T02:38:30.455Z,8.60
2023-02-22T02:41:26.759Z,9.50
2023-02-22T02:44:02.633Z,8.50
2023-02-22T02:46:40.492Z,10.70
2023-02-22T02:49:15.436Z,10.30
2023-02-22T02:51:50.442Z,10.30
2023-02-22T02:54:19.862Z,9.20
2023-02-22T02:56:48.680Z,9.70
2023-02-22T02:59:35.032Z,8.70
2023-02-22T03:02:34.745Z,8.70
2023-02-22T03:05:36.188Z,9.00
2023-02-22T03:08:39.740Z,9.10
2023-02-22T03:11:16.575Z,8.30
2023-02-22T03:13:58.488Z,10.20
2023-02-22T03:17:04.759Z,8.80
2023-02-22T03:20:01.819Z,7.70
2023-02-22T03:22:44.056Z,8.50
2023-02-22T03:25:25.024Z,7.70
2023-02-22T03:28:03.175Z,9.50
2023-02-22T03:31:00.944Z,11.10
2023-02-22T03:34:01.839Z,10.30
2023-02-22T03:36:39.510Z,9.30
2023-02-22T03:39:16.084Z,9.40
2023-02-22T03:41:51.437Z,9.80
2023-02-22T03:46:56.849Z,9.00
2023-02-22T03:49:36.102Z,9.80
2023-02-22T03:52:05.590Z,9.30
2023-02-22T03:54:35.100Z,8.70
2023-02-22T03:57:18.051Z,8.50
2023-02-22T03:59:47.148Z,7.50
2023-02-22T04:02:19.088Z,6.90
2023-02-22T04:04:48.355Z,7.90
2023-02-22T04:10:24.538Z,8.10
2023-02-22T04:12:53.952Z,6.60
2023-02-22T04:15:24.667Z,7.50
2023-02-22T04:17:53.433Z,7.30
2023-02-22T04:20:25.527Z,7.70
2023-02-22T04:22:55.877Z,8.50
2023-02-22T04:25:24.710Z,8.00
2023-02-22T04:27:54.658Z,9.70
2023-02-22T04:30:23.506Z,9.70
2023-02-22T04:32:51.895Z,8.00
2023-02-22T04:35:20.415Z,8.50
2023-02-22T04:37:48.770Z,8.60
2023-02-22T04:40:17.723Z,7.90
2023-02-22T04:42:46.080Z,7.40
2023-02-22T04:45:14.791Z,8.20
2023-02-22T04:47:43.154Z,8.40
2023-02-22T04:50:12.768Z,7.80
2023-02-22T04:52:41.149Z,9.10
2023-02-22T04:55:10.003Z,8.10
2023-02-22T04:57:39.455Z,8.70
2023-02-22T05:00:10.435Z,8.90
2023-02-22T05:02:40.001Z,9.90
2023-02-22T05:05:08.748Z,9.80
2023-02-22T05:07:37.618Z,11.00
2023-02-22T05:10:06.378Z,10.90
2023-02-22T05:12:36.012Z,9.00
2023-02-22T05:15:06.644Z,9.30
2023-02-22T05:17:36.645Z,8.20
2023-02-22T05:20:05.593Z,8.30
2023-02-22T05:22:34.645Z,8.80
2023-02-22T05:25:03.348Z,9.00
2023-02-22T05:27:31.620Z,9.70
2023-02-22T05:30:00.306Z,8.30
2023-02-22T05:32:28.646Z,8.10
2023-02-22T05:34:56.944Z,7.30
2023-02-22T05:37:25.270Z,8.20
2023-02-22T05:39:53.638Z,7.00
2023-02-22T05:42:23.430Z,7.20
2023-02-22T05:44:51.826Z,7.00
2023-02-22T05:47:20.174Z,7.20
2023-02-22T05:49:48.543Z,8.30
2023-02-22T05:52:16.969Z,8.20
2023-02-22T05:54:45.260Z,7.40
2023-02-22T05:57:13.560Z,7.60
2023-02-22T05:59:43.064Z,7.80
2023-02-22T06:02:11.513Z,7.80
2023-02-22T06:04:40.225Z,7.90
2023-02-22T06:07:08.636Z,7.60
2023-02-22T06:09:37.040Z,8.50
2023-02-22T06:12:06.385Z,8.60
2023-02-22T06:14:35.236Z,8.40
2023-02-22T06:17:05.390Z,8.70
2023-02-22T06:19:33.758Z,7.60
2023-02-22T06:22:03.059Z,7.90
2023-02-22T06:24:31.394Z,6.80
2023-02-22T06:27:02.172Z,8.20
2023-02-22T06:29:30.504Z,7.70
2023-02-22T06:31:58.953Z,8.40
2023-02-22T06:34:27.409Z,7.90
2023-02-22T06:36:55.773Z,7.50
2023-02-22T06:39:25.607Z,8.70
2023-02-22T06:41:56.398Z,10.20
2023-02-22T06:44:24.777Z,19.50
2023-02-22T06:46:53.154Z,23.10
2023-02-22T06:49:21.543Z,17.20
2023-02-22T06:51:49.984Z,11.80
2023-02-22T06:54:18.393Z,10.00
2023-02-22T06:56:46.734Z,10.40
2023-02-22T06:59:16.043Z,12.40
2023-02-22T07:01:44.813Z,10.40
2023-02-22T07:04:13.338Z,11.90
2023-02-22T07:06:49.804Z,15.50
2023-02-22T07:09:19.053Z,16.20
2023-02-22T07:11:47.387Z,41.20
2023-02-22T07:14:17.581Z,57.00
2023-02-22T07:16:46.258Z,45.10
2023-02-22T07:19:14.820Z,37.80
2023-02-22T07:21:43.190Z,28.90
2023-02-22T07:24:12.645Z,24.90
2023-02-22T07:26:42.383Z,20.50
2023-02-22T07:29:12.186Z,18.80
2023-02-22T07:31:40.537Z,15.60
2023-02-22T07:34:08.864Z,14.70
2023-02-22T07:36:37.262Z,18.20
2023-02-22T07:39:08.745Z,20.30
2023-02-22T07:41:37.117Z,23.90
2023-02-22T07:44:05.903Z,12.60
2023-02-22T07:46:34.269Z,12.00
2023-02-22T07:49:02.591Z,11.40
2023-02-22T07:51:30.949Z,11.70
2023-02-22T07:53:59.422Z,11.10
2023-02-22T07:56:27.762Z,10.40
2023-02-22T07:58:56.124Z,12.20
2023-02-22T08:01:24.782Z,13.50
2023-02-22T08:03:54.062Z,12.10
2023-02-22T08:06:25.700Z,19.10
2023-02-22T08:08:54.032Z,13.50
2023-02-22T08:11:22.429Z,16.90
2023-02-22T08:13:50.855Z,10.80
2023-02-22T08:16:19.180Z,10.80
2023-02-22T08:18:47.552Z,9.70
2023-02-22T08:21:17.382Z,8.50
2023-02-22T08:23:50.667Z,9.80
2023-02-22T08:26:20.900Z,10.00
2023-02-22T08:28:49.467Z,10.50
2023-02-22T08:31:18.194Z,10.20
2023-02-22T08:33:49.952Z,10.30
2023-02-22T08:36:18.671Z,10.60
2023-02-22T08:38:47.048Z,18.90
2023-02-22T08:41:15.596Z,12.10
2023-02-22T08:43:44.061Z,9.00
2023-02-22T08:46:12.616Z,9.50
2023-02-22T08:48:51.373Z,11.50
2023-02-22T08:51:20.754Z,9.50
2023-02-22T08:53:49.129Z,10.80
2023-02-22T08:56:17.888Z,8.60
2023-02-22T08:58:46.330Z,9.40
2023-02-22T09:01:19.294Z,8.90
2023-02-22T09:03:52.023Z,7.90
2023-02-22T09:06:20.398Z,9.90
2023-02-22T09:08:48.747Z,10.80
2023-02-22T09:11:18.751Z,7.70
2023-02-22T09:13:47.780Z,7.80
2023-02-22T09:16:16.344Z,7.00
2023-02-22T09:18:44.801Z,8.40
2023-02-22T09:21:13.231Z,8.60
2023-02-22T09:23:41.629Z,8.20
2023-02-22T09:26:10.542Z,7.70
2023-02-22T09:28:38.921Z,6.80
2023-02-22T09:31:08.608Z,7.80
2023-02-22T09:33:36.942Z,8.70
2023-02-22T09:36:06.938Z,7.90
2023-02-22T09:38:36.266Z,8.10
2023-02-22T09:41:34.571Z,8.10
2023-02-22T09:44:36.493Z,7.20
2023-02-22T09:47:10.614Z,10.00
2023-02-22T09:49:48.919Z,8.80
2023-02-22T09:52:19.038Z,7.80
2023-02-22T09:54:54.406Z,9.00
2023-02-22T09:57:31.961Z,8.40
2023-02-22T10:00:13.672Z,8.10
2023-02-22T10:03:00.805Z,8.80
2023-02-22T10:05:39.744Z,7.10
2023-02-22T10:08:19.077Z,9.20
2023-02-22T10:11:00.843Z,7.40
2023-02-22T10:13:55.500Z,11.30
2023-02-22T10:16:53.304Z,8.30
2023-02-22T10:19:50.162Z,7.70
2023-02-22T10:22:32.323Z,9.60
2023-02-22T10:25:19.325Z,8.00
2023-02-22T10:28:03.708Z,6.70
2023-02-22T10:30:39.813Z,6.40
2023-02-22T10:33:17.300Z,6.40
2023-02-22T10:35:47.256Z,6.00
2023-02-22T10:38:32.010Z,7.00
2023-02-22T10:41:09.539Z,5.50
2023-02-22T10:43:40.806Z,5.90
2023-02-22T10:46:21.110Z,7.20
2023-02-22T10:48:55.448Z,6.10
2023-02-22T10:51:24.618Z,5.70
2023-02-22T10:54:27.003Z,5.60
2023-02-22T10:56:56.917Z,5.00
2023-02-22T10:59:35.805Z,5.70
2023-02-22T11:02:16.031Z,4.80
2023-02-22T11:04:54.334Z,4.60
2023-02-22T11:07:36.830Z,5.70
2023-02-22T11:10:09.490Z,7.90
2023-02-22T11:12:43.672Z,5.70
2023-02-22T11:15:18.454Z,5.30
2023-02-22T11:17:49.233Z,5.70
2023-02-22T11:20:26.489Z,5.90
2023-02-22T11:22:58.466Z,6.40
2023-02-22T11:25:42.551Z,6.60
2023-02-22T11:28:31.314Z,5.50
2023-02-22T11:31:20.624Z,5.10
2023-02-22T11:33:58.526Z,6.70
2023-02-22T11:36:42.056Z,5.50
2023-02-22T11:39:34.493Z,5.50
2023-02-22T11:42:27.911Z,6.50
2023-02-22T11:45:23.566Z,5.70
2023-02-22T11:47:55.302Z,5.30
2023-02-22T11:51:00.063Z,5.60
2023-02-22T11:53:34.478Z,5.50
2023-02-22T11:56:35.599Z,4.70
2023-02-22T11:59:58.693Z,5.70
2023-02-22T12:02:57.399Z,5.60
2023-02-22T12:05:45.300Z,5.50
2023-02-22T12:08:37.293Z,6.50
2023-02-22T12:11:27.573Z,4.80
2023-02-22T12:14:31.875Z,6.00
2023-02-22T12:17:43.665Z,4.90
2023-02-22T12:20:24.729Z,4.20
2023-02-22T12:23:22.845Z,5.80
2023-02-22T12:26:11.718Z,5.00
2023-02-22T12:29:06.717Z,5.10
2023-02-22T12:31:47.483Z,5.50
2023-02-22T12:34:27.775Z,4.30
2023-02-22T12:37:22.321Z,4.60
2023-02-22T12:39:58.757Z,4.40
2023-02-22T12:42:53.386Z,5.90
2023-02-22T12:46:04.719Z,4.30
2023-02-22T12:49:07.481Z,5.40
2023-02-22T12:52:21.194Z,4.50
2023-02-22T12:55:25.353Z,4.50
2023-02-22T12:58:25.964Z,4.30
2023-02-22T13:01:07.328Z,4.30
2023-02-22T13:03:41.470Z,4.60
2023-02-22T13:06:37.412Z,4.20
2023-02-22T13:12:17.352Z,6.30
2023-02-22T13:15:18.142Z,4.60
2023-02-22T13:18:01.291Z,5.00
2023-02-22T13:21:06.502Z,4.80
2023-02-22T13:24:03.638Z,4.30
2023-02-22T13:26:53.026Z,4.30
2023-02-22T13:29:34.768Z,4.90
2023-02-22T13:32:19.996Z,4.40
2023-02-22T13:35:16.071Z,5.10
2023-02-22T13:38:41.025Z,4.20
2023-02-22T13:41:59.902Z,5.40
2023-02-22T13:44:49.559Z,3.60
2023-02-22T13:47:57.752Z,5.30
2023-02-22T13:50:52.110Z,4.70
2023-02-22T13:53:27.727Z,4.40
2023-02-22T13:56:00.672Z,4.70
2023-02-22T13:58:29.083Z,4.70
2023-02-22T14:01:00.203Z,4.50
2023-02-22T14:03:36.366Z,6.80
2023-02-22T14:06:10.762Z,4.80
2023-02-22T14:08:42.009Z,5.50
2023-02-22T14:11:13.418Z,5.00
2023-02-22T14:14:01.049Z,5.00
2023-02-22T14:16:31.503Z,4.80
2023-02-22T14:19:23.813Z,7.40
2023-02-22T14:22:05.940Z,5.10
2023-02-22T14:24:48.058Z,4.20
2023-02-22T14:27:17.655Z,4.70
2023-02-22T14:30:00.610Z,4.80
2023-02-22T14:32:35.076Z,5.20
2023-02-22T14:35:26.508Z,3.50
2023-02-22T14:38:00.959Z,4.20
2023-02-22T14:40:36.357Z,5.20
2023-02-22T14:43:21.205Z,4.80
2023-02-22T14:45:56.467Z,4.30
2023-02-22T14:48:43.006Z,4.00
2023-02-22T14:51:26.492Z,5.50
2023-02-22T14:54:20.798Z,4.10
2023-02-22T14:57:12.112Z,4.50
2023-02-22T14:59:58.919Z,5.20
2023-02-22T15:02:27.339Z,3.50
2023-02-22T15:04:56.424Z,4.60
2023-02-22T15:07:31.934Z,4.10
2023-02-22T15:10:21.806Z,4.50
2023-02-22T15:13:12.346Z,4.60
2023-02-22T15:15:50.021Z,4.70
2023-02-22T15:18:25.453Z,3.90
2023-02-22T15:20:58.706Z,4.00
2023-02-22T15:23:38.882Z,4.20
2023-02-22T15:26:16.037Z,3.70
2023-02-22T15:28:45.313Z,4.60
2023-02-22T15:31:24.463Z,4.90
2023-02-22T15:33:54.875Z,4.30
2023-02-22T15:36:31.035Z,4.50
2023-02-22T15:38:59.592Z,4.40
2023-02-22T15:41:32.800Z,5.10
2023-02-22T15:44:23.336Z,4.60
2023-02-22T15:46:55.263Z,4.30
2023-02-22T15:49:24.558Z,4.10
2023-02-22T15:52:24.552Z,6.00
2023-02-22T15:54:53.426Z,4.20
2023-02-22T15:57:25.470Z,4.50
2023-02-22T15:59:57.301Z,4.20
2023-02-22T16:02:39.237Z,4.20
2023-02-22T16:05:14.456Z,3.60
2023-02-22T16:07:49.915Z,4.80
2023-02-22T16:10:31.476Z,5.00
2023-02-22T16:13:30.952Z,3.70
2023-02-22T16:16:25.287Z,4.10
2023-02-22T16:19:22.026Z,4.80
2023-02-22T16:22:03.106Z,4.50
2023-02-22T16:24:36.324Z,5.50
2023-02-22T16:27:11.326Z,4.10
2023-02-22T16:32:09.229Z,4.40
2023-02-22T16:34:37.729Z,4.40
2023-02-22T16:37:22.937Z,5.40
2023-02-22T16:39:51.861Z,5.40
2023-02-22T16:42:24.142Z,5.40
2023-02-22T16:44:53.458Z,6.10
2023-02-22T16:47:21.969Z,5.90
2023-02-22T16:49:52.867Z,6.10
2023-02-22T16:52:21.421Z,5.10
2023-02-22T16:54:51.864Z,5.90
2023-02-22T16:57:23.808Z,5.00
2023-02-22T16:59:52.955Z,6.80
2023-02-22T17:02:21.754Z,5.50
2023-02-22T17:04:50.336Z,5.10
2023-02-22T17:07:24.057Z,4.90
2023-02-22T17:09:52.548Z,6.00
2023-02-22T17:12:20.884Z,5.40
2023-02-22T17:14:49.273Z,5.00
2023-02-22T17:17:17.843Z,5.10
2023-02-22T17:19:46.183Z,4.90
2023-02-22T17:22:21.156Z,4.90
2023-02-22T17:24:49.983Z,5.30
2023-02-22T17:27:19.021Z,5.50
2023-02-22T17:29:49.036Z,6.50
2023-02-22T17:32:17.727Z,6.80
2023-02-22T17:34:46.626Z,5.50
2023-02-22T17:37:15.326Z,6.50
2023-02-22T17:39:43.648Z,6.20
2023-02-22T17:42:15.541Z,7.00
2023-02-22T17:44:44.186Z,6.20
2023-02-22T17:47:12.960Z,6.90
2023-02-22T17:49:41.897Z,6.80
2023-02-22T17:52:15.592Z,7.90
2023-02-22T17:54:45.509Z,7.10
2023-02-22T17:57:14.318Z,9.20
2023-02-22T17:59:43.004Z,7.90
2023-02-22T18:02:11.381Z,8.00
2023-02-22T18:04:40.475Z,7.90
2023-02-22T18:07:08.932Z,7.10
2023-02-22T18:09:37.424Z,10.60
2023-02-22T18:12:05.837Z,8.70
2023-02-22T18:14:34.250Z,8.90
2023-02-22T18:17:02.546Z,9.10
2023-02-22T18:19:31.031Z,11.30
2023-02-22T18:22:00.338Z,10.90
2023-02-22T18:24:34.226Z,11.90
2023-02-22T18:27:05.968Z,11.60
2023-02-22T18:29:34.408Z,9.40
2023-02-22T18:32:02.872Z,10.10
2023-02-22T18:34:33.055Z,8.90
2023-02-22T18:37:01.430Z,8.30
2023-02-22T18:39:33.865Z,7.20
2023-02-22T18:42:02.309Z,5.70
2023-02-22T18:44:32.104Z,8.50
2023-02-22T18:47:00.568Z,10.70
2023-02-22T18:49:29.085Z,10.10
2023-02-22T18:51:57.753Z,13.70
2023-02-22T18:54:26.283Z,13.90
2023-02-22T18:56:54.694Z,15.60
2023-02-22T18:59:23.256Z,17.10
2023-02-22T19:01:55.007Z,16.50
2023-02-22T19:04:25.279Z,14.30
2023-02-22T19:06:55.156Z,13.70
2023-02-22T19:09:27.478Z,14.00
2023-02-22T19:11:55.857Z,13.90
2023-02-22T19:14:24.334Z,13.30
2023-02-22T19:16:52.773Z,13.00
2023-02-22T19:19:21.380Z,12.60
2023-02-22T19:21:51.781Z,13.10
2023-02-22T19:24:20.733Z,13.70
2023-02-22T19:26:53.772Z,14.80
2023-02-22T19:29:23.836Z,13.20
2023-02-22T19:31:53.712Z,13.60
2023-02-22T19:34:24.665Z,13.10
2023-02-22T19:36:53.270Z,15.40
2023-02-22T19:41:58.825Z,13.90
2023-02-22T19:44:28.284Z,12.90
2023-02-22T19:46:56.709Z,12.60
2023-02-22T19:49:27.308Z,13.10
2023-02-22T19:51:58.049Z,15.40
2023-02-22T19:54:26.549Z,13.20
2023-02-22T19:56:57.023Z,13.10
2023-02-22T19:59:25.387Z,12.60
2023-02-22T20:01:54.831Z,12.30
2023-02-22T20:04:24.552Z,13.10
2023-02-22T20:06:54.738Z,14.00
2023-02-22T20:09:40.232Z,14.60
2023-02-22T20:12:09.487Z,11.80
2023-02-22T20:14:38.709Z,12.50
2023-02-22T20:17:08.036Z,11.40
2023-02-22T20:19:37.671Z,13.60
2023-02-22T20:22:06.542Z,13.50
2023-02-22T20:24:34.879Z,12.00
2023-02-22T20:27:03.313Z,12.70
2023-02-22T20:29:31.707Z,12.30
2023-02-22T20:32:02.556Z,11.50
2023-02-22T20:34:32.288Z,13.80
2023-02-22T20:37:01.584Z,13.80
2023-02-22T20:39:30.280Z,14.30
2023-02-22T20:42:02.746Z,11.80
2023-02-22T20:44:31.280Z,11.40
2023-02-22T20:47:00.031Z,11.40
2023-02-22T20:49:28.402Z,11.50
2023-02-22T20:51:56.800Z,10.80
2023-02-22T20:54:25.434Z,13.00
2023-02-22T20:56:54.017Z,13.00
2023-02-22T20:59:22.459Z,13.60
2023-02-22T21:01:53.028Z,14.00
2023-02-22T21:04:22.655Z,11.90
2023-02-22T21:06:51.984Z,13.60
2023-02-22T21:09:21.506Z,13.70
2023-02-22T21:11:50.524Z,13.10
2023-02-22T21:14:19.908Z,11.80
2023-02-22T21:16:51.218Z,12.40
2023-02-22T21:19:26.532Z,13.60
2023-02-22T21:24:29.859Z,13.40
2023-02-22T21:26:59.163Z,12.60
2023-02-22T21:29:29.022Z,13.50
2023-02-22T21:31:57.794Z,12.80
2023-02-22T21:34:26.398Z,13.20
2023-02-22T21:36:54.839Z,13.20
2023-02-22T21:39:28.220Z,13.30
2023-02-22T21:42:00.724Z,11.40
2023-02-22T21:44:29.998Z,11.40
2023-02-22T21:46:58.522Z,11.40
2023-02-22T21:49:27.214Z,12.10
2023-02-22T21:51:56.786Z,12.60
2023-02-22T21:54:28.013Z,12.00
2023-02-22T21:56:56.598Z,12.50
2023-02-22T21:59:25.049Z,13.30
2023-02-22T22:01:56.350Z,12.10
2023-02-22T22:04:31.508Z,10.40
2023-02-22T22:07:01.690Z,11.20
2023-02-22T22:09:41.144Z,12.30
2023-02-22T22:12:10.821Z,11.50
2023-02-22T22:14:40.321Z,13.00
2023-02-22T22:17:09.625Z,11.10
2023-02-22T22:19:41.709Z,11.90
2023-02-22T22:22:11.004Z,12.80
2023-02-22T22:24:41.731Z,11.90
2023-02-22T22:27:12.838Z,12.50
2023-02-22T22:29:41.283Z,13.40
2023-02-22T22:32:10.654Z,14.00
2023-02-22T22:34:39.186Z,13.10
2023-02-22T22:37:08.683Z,14.10
2023-02-22T22:39:38.513Z,13.10
2023-02-22T22:42:09.075Z,12.60
2023-02-22T22:44:42.167Z,13.50
2023-02-22T22:47:14.072Z,14.00
2023-02-22T22:49:42.719Z,14.00
2023-02-22T22:52:16.436Z,13.40
2023-02-22T22:54:44.817Z,14.10
2023-02-22T22:57:13.651Z,14.40
2023-02-22T22:59:42.097Z,13.00
2023-02-22T23:02:11.430Z,16.00
2023-02-22T23:04:39.886Z,15.70
2023-02-22T23:07:08.527Z,14.60
2023-02-22T23:09:39.366Z,15.30
2023-02-22T23:12:16.723Z,17.20
2023-02-22T23:14:45.618Z,15.30
2023-02-22T23:17:26.860Z,14.30
2023-02-22T23:19:56.024Z,15.40
2023-02-22T23:22:24.541Z,14.30
2023-02-22T23:24:54.398Z,15.30
2023-02-22T23:27:23.758Z,15.30
2023-02-22T23:29:52.514Z,16.10
2023-02-22T23:32:21.061Z,15.40
2023-02-22T23:34:49.675Z,15.20
2023-02-22T23:37:20.710Z,14.50
2023-02-22T23:39:50.983Z,16.90
2023-02-22T23:42:19.443Z,17.00
2023-02-22T23:44:48.103Z,14.70
2023-02-22T23:47:16.552Z,16.20
2023-02-22T23:49:49.447Z,16.80
2023-02-22T23:52:24.101Z,15.40
2023-02-22T23:54:54.051Z,16.10
2023-02-22T23:57:24.125Z,15.30
2023-02-22T23:59:52.444Z,15.80
